Time,TemperatureF,DewpointF,PressureIn,WindDirection,WindDirectionDegrees,WindSpeedMPH,WindSpeedGustMPH,Humidity,HourlyPrecipIn,Conditions,Clouds,dailyrainin,SoftwareType,DateUTC
2013-03-20 00:13:00,40.3,10.6,29.73,NW,315,1.1,-999.0,29,-99.99,,,0.00,Acu-Link.com,2013-03-20 04:13:00,
2013-03-20 00:29:00,40.5,11.5,29.73,NW,315,2.2,-999.0,30,-99.99,,,0.00,Acu-Link.com,2013-03-20 04:29:00,
2013-03-20 00:44:00,40.1,11.2,29.73,SW,225,1.7,-999.0,30,-99.99,,,0.00,Acu-Link.com,2013-03-20 04:44:00,
2013-03-20 00:59:00,39.9,11.0,29.72,NNW,337,2.2,-999.0,30,-99.99,,,0.00,Acu-Link.com,2013-03-20 04:59:00,
2013-03-20 01:14:00,39.7,11.6,29.72,West,270,0.0,-999.0,31,-99.99,,,0.00,Acu-Link.com,2013-03-20 05:14:00,
2013-03-20 01:30:00,39.4,11.3,29.72,East,90,1.1,-999.0,31,-99.99,,,0.00,Acu-Link.com,2013-03-20 05:30:00,
2013-03-20 01:45:00,39.6,11.5,29.71,East,90,1.7,-999.0,31,-99.99,,,0.00,Acu-Link.com,2013-03-20 05:45:00,
2013-03-20 02:00:00,39.6,11.5,29.71,SSW,202,0.0,-999.0,31,-99.99,,,0.00,Acu-Link.com,2013-03-20 06:00:00,
2013-03-20 02:16:00,39.6,11.5,29.71,West,270,2.7,-999.0,31,-99.99,,,0.00,Acu-Link.com,2013-03-20 06:16:00,
2013-03-20 02:46:00,39.6,11.5,29.69,ESE,112,2.2,-999.0,31,-99.99,,,0.00,Acu-Link.com,2013-03-20 06:46:00,
2013-03-20 03:02:00,39.6,11.5,29.69,West,270,1.7,-999.0,31,-99.99,,,0.00,Acu-Link.com,2013-03-20 07:02:00,
2013-03-20 03:17:00,39.4,11.3,29.69,NE,45,3.7,-999.0,31,-99.99,,,0.00,Acu-Link.com,2013-03-20 07:17:00,
2013-03-20 03:32:00,39.4,11.3,29.68,SW,225,3.2,-999.0,31,-99.99,,,0.00,Acu-Link.com,2013-03-20 07:32:00,
2013-03-20 03:47:00,39.2,11.1,29.67,SW,225,2.7,-999.0,31,-99.99,,,0.00,Acu-Link.com,2013-03-20 07:47:00,
2013-03-20 04:02:00,39.0,11.0,29.67,NE,45,1.1,-999.0,31,-99.99,,,0.00,Acu-Link.com,2013-03-20 08:02:00,
2013-03-20 04:19:00,39.0,11.7,29.67,North,0,2.7,-999.0,32,-99.99,,,0.00,Acu-Link.com,2013-03-20 08:19:00,
2013-03-20 04:36:00,39.0,11.7,29.67,NNE,22,3.7,-999.0,32,-99.99,,,0.00,Acu-Link.com,2013-03-20 08:36:00,
2013-03-20 05:06:00,38.1,10.9,29.67,North,0,2.2,-999.0,32,-99.99,,,0.00,Acu-Link.com,2013-03-20 09:06:00,
2013-03-20 05:21:00,37.9,10.7,29.67,SW,225,1.7,-999.0,32,-99.99,,,0.00,Acu-Link.com,2013-03-20 09:21:00,
2013-03-20 05:52:00,37.4,11.0,29.67,ENE,67,0.0,-999.0,33,-99.99,,,0.00,Acu-Link.com,2013-03-20 09:52:00,
2013-03-20 06:07:00,37.2,11.4,29.68,West,270,1.1,-999.0,34,-99.99,,,0.00,Acu-Link.com,2013-03-20 10:07:00,
2013-03-20 06:23:00,37.0,11.9,29.69,ESE,112,0.0,-999.0,35,-99.99,,,0.00,Acu-Link.com,2013-03-20 10:23:00,
2013-03-20 06:38:00,36.9,11.2,29.70,SW,225,4.7,-999.0,34,-99.99,,,0.00,Acu-Link.com,2013-03-20 10:38:00,
2013-03-20 06:53:00,36.7,11.0,29.70,SSE,157,2.7,-999.0,34,-99.99,,,0.00,Acu-Link.com,2013-03-20 10:53:00,
2013-03-20 07:09:00,36.3,11.3,29.70,ESE,112,1.7,-999.0,35,-99.99,,,0.00,Acu-Link.com,2013-03-20 11:09:00,
2013-03-20 07:24:00,36.0,11.7,29.71,South,180,2.2,-999.0,36,-99.99,,,0.00,Acu-Link.com,2013-03-20 11:24:00,
2013-03-20 07:39:00,35.8,11.5,29.72,South,180,0.0,-999.0,36,-99.99,,,0.00,Acu-Link.com,2013-03-20 11:39:00,
2013-03-20 07:54:00,35.8,11.5,29.72,SSE,157,1.7,-999.0,36,-99.99,,,0.00,Acu-Link.com,2013-03-20 11:54:00,
2013-03-20 08:09:00,35.8,10.9,29.73,WSW,247,0.0,-999.0,35,-99.99,,,0.00,Acu-Link.com,2013-03-20 12:09:00,
2013-03-20 08:25:00,35.8,9.5,29.74,NNE,22,1.1,-999.0,33,-99.99,,,0.00,Acu-Link.com,2013-03-20 12:25:00,
2013-03-20 08:40:00,36.0,9.7,29.74,West,270,2.7,-999.0,33,-99.99,,,0.00,Acu-Link.com,2013-03-20 12:40:00,
2013-03-20 08:55:00,36.3,9.3,29.74,WNW,292,2.7,-999.0,32,-99.99,,,0.00,Acu-Link.com,2013-03-20 12:55:00,
2013-03-20 09:10:00,36.5,9.5,29.74,West,270,3.7,-999.0,32,-99.99,,,0.00,Acu-Link.com,2013-03-20 13:10:00,
2013-03-20 09:26:00,36.9,9.8,29.74,SW,225,2.7,-999.0,32,-99.99,,,0.00,Acu-Link.com,2013-03-20 13:26:00,
2013-03-20 09:41:00,37.8,11.3,29.74,NE,45,1.7,-999.0,33,-99.99,,,0.00,Acu-Link.com,2013-03-20 13:41:00,
2013-03-20 09:56:00,38.3,10.3,29.74,NE,45,4.2,-999.0,31,-99.99,,,0.00,Acu-Link.com,2013-03-20 13:56:00,
2013-03-20 10:12:00,38.5,9.0,29.74,NNW,337,2.2,-999.0,29,-99.99,,,0.00,Acu-Link.com,2013-03-20 14:12:00,
2013-03-20 10:27:00,38.8,8.5,29.74,WNW,292,5.3,-999.0,28,-99.99,,,0.00,Acu-Link.com,2013-03-20 14:27:00,
2013-03-20 10:42:00,39.2,10.4,29.74,NW,315,2.7,-999.0,30,-99.99,,,0.00,Acu-Link.com,2013-03-20 14:42:00,
2013-03-20 10:57:00,39.9,8.7,29.74,West,270,0.0,-999.0,27,-99.99,,,0.00,Acu-Link.com,2013-03-20 14:57:00,
2013-03-20 11:12:00,39.9,7.8,29.74,West,270,3.2,-999.0,26,-99.99,,,0.00,Acu-Link.com,2013-03-20 15:12:00,
2013-03-20 11:28:00,40.1,8.0,29.74,West,270,1.7,-999.0,26,-99.99,,,0.00,Acu-Link.com,2013-03-20 15:28:00,
2013-03-20 11:43:00,41.2,8.9,29.73,South,180,0.0,-999.0,26,-99.99,,,0.00,Acu-Link.com,2013-03-20 15:43:00,
2013-03-20 12:14:00,44.4,11.7,29.71,WNW,292,2.7,-999.0,26,-99.99,,,0.00,Acu-Link.com,2013-03-20 16:14:00,
2013-03-20 12:29:00,46.8,11.9,29.70,SW,225,5.3,-999.0,24,-99.99,,,0.00,Acu-Link.com,2013-03-20 16:29:00,
2013-03-20 12:44:00,48.0,11.0,29.69,SSE,157,4.2,-999.0,22,-99.99,,,0.00,Acu-Link.com,2013-03-20 16:44:00,
2013-03-20 13:00:00,46.8,10.0,29.67,WSW,247,2.2,-999.0,22,-99.99,,,0.00,Acu-Link.com,2013-03-20 17:00:00,
2013-03-20 13:15:00,50.4,14.0,29.66,South,180,3.7,-999.0,23,-99.99,,,0.00,Acu-Link.com,2013-03-20 17:15:00,
2013-03-20 13:30:00,50.7,14.3,29.65,South,180,3.7,-999.0,23,-99.99,,,0.00,Acu-Link.com,2013-03-20 17:30:00,
2013-03-20 13:45:00,50.4,12.0,29.64,SSW,202,2.7,-999.0,21,-99.99,,,0.00,Acu-Link.com,2013-03-20 17:45:00,
2013-03-20 14:00:00,49.6,13.3,29.63,North,0,1.7,-999.0,23,-99.99,,,0.00,Acu-Link.com,2013-03-20 18:00:00,
2013-03-20 14:46:00,53.1,16.3,29.57,SW,225,1.7,-999.0,23,-99.99,,,0.00,Acu-Link.com,2013-03-20 18:46:00,
2013-03-20 15:02:00,52.3,14.6,29.56,SSW,202,4.7,-999.0,22,-99.99,,,0.00,Acu-Link.com,2013-03-20 19:02:00,
2013-03-20 15:17:00,53.8,14.8,29.54,South,180,5.8,-999.0,21,-99.99,,,0.00,Acu-Link.com,2013-03-20 19:17:00,
2013-03-20 15:32:00,54.1,15.1,29.53,South,180,6.8,-999.0,21,-99.99,,,0.00,Acu-Link.com,2013-03-20 19:32:00,
2013-03-20 15:47:00,53.1,14.2,29.52,SW,225,4.2,-999.0,21,-99.99,,,0.00,Acu-Link.com,2013-03-20 19:47:00,
2013-03-20 16:03:00,52.5,13.7,29.50,WSW,247,4.7,-999.0,21,-99.99,,,0.00,Acu-Link.com,2013-03-20 20:03:00,
2013-03-20 16:18:00,52.7,14.9,29.50,South,180,5.8,-999.0,22,-99.99,,,0.00,Acu-Link.com,2013-03-20 20:18:00,
2013-03-20 16:33:00,53.6,15.7,29.48,SSW,202,6.3,-999.0,22,-99.99,,,0.00,Acu-Link.com,2013-03-20 20:33:00,
2013-03-20 16:48:00,51.8,14.2,29.48,West,270,5.8,-999.0,22,-99.99,,,0.00,Acu-Link.com,2013-03-20 20:48:00,
2013-03-20 17:03:00,52.2,15.5,29.47,SW,225,4.7,-999.0,23,-99.99,,,0.00,Acu-Link.com,2013-03-20 21:03:00,
2013-03-20 17:18:00,52.5,14.8,29.46,SSW,202,5.8,-999.0,22,-99.99,,,0.00,Acu-Link.com,2013-03-20 21:18:00,
2013-03-20 17:34:00,51.6,14.0,29.46,SSW,202,5.8,-999.0,22,-99.99,,,0.00,Acu-Link.com,2013-03-20 21:34:00,
2013-03-20 17:49:00,50.4,14.0,29.46,South,180,5.3,-999.0,23,-99.99,,,0.00,Acu-Link.com,2013-03-20 21:49:00,
2013-03-20 18:04:00,49.8,13.5,29.46,South,180,7.3,-999.0,23,-99.99,,,0.00,Acu-Link.com,2013-03-20 22:04:00,
2013-03-20 18:19:00,50.9,13.4,29.46,SSW,202,4.2,-999.0,22,-99.99,,,0.00,Acu-Link.com,2013-03-20 22:19:00,
2013-03-20 18:34:00,50.4,15.9,29.46,SW,225,3.2,-999.0,25,-99.99,,,0.00,Acu-Link.com,2013-03-20 22:34:00,
2013-03-20 18:49:00,50.0,15.6,29.46,NE,45,1.1,-999.0,25,-99.99,,,0.00,Acu-Link.com,2013-03-20 22:49:00,
2013-03-20 19:04:00,48.7,13.5,29.46,East,90,4.2,-999.0,24,-99.99,,,0.00,Acu-Link.com,2013-03-20 23:04:00,
2013-03-20 19:20:00,48.7,14.5,29.46,ENE,67,0.0,-999.0,25,-99.99,,,0.00,Acu-Link.com,2013-03-20 23:20:00,
2013-03-20 19:35:00,47.8,13.7,29.46,ENE,67,1.7,-999.0,25,-99.99,,,0.00,Acu-Link.com,2013-03-20 23:35:00,
2013-03-20 19:50:00,46.0,14.7,29.46,North,0,0.0,-999.0,28,-99.99,,,0.00,Acu-Link.com,2013-03-20 23:50:00,
2013-03-20 20:05:00,45.5,12.6,29.46,SSW,202,3.7,-999.0,26,-99.99,,,0.00,Acu-Link.com,2013-03-21 00:05:00,
2013-03-20 20:21:00,45.3,12.5,29.45,WNW,292,1.1,-999.0,26,-99.99,,,0.00,Acu-Link.com,2013-03-21 00:21:00,
2013-03-20 20:51:00,44.6,11.0,29.45,SW,225,1.7,-999.0,25,-99.99,,,0.00,Acu-Link.com,2013-03-21 00:51:00,
2013-03-20 21:07:00,43.9,12.1,29.45,South,180,1.7,-999.0,27,-99.99,,,0.00,Acu-Link.com,2013-03-21 01:07:00,
2013-03-20 21:22:00,43.7,12.8,29.45,WSW,247,2.2,-999.0,28,-99.99,,,0.00,Acu-Link.com,2013-03-21 01:22:00,
2013-03-20 21:37:00,43.0,13.7,29.46,SSW,202,3.2,-999.0,30,-99.99,,,0.00,Acu-Link.com,2013-03-21 01:37:00,
2013-03-20 21:52:00,42.3,14.6,29.46,WSW,247,2.7,-999.0,32,-99.99,,,0.00,Acu-Link.com,2013-03-21 01:52:00,
2013-03-20 22:07:00,41.9,15.6,29.46,WNW,292,4.7,-999.0,34,-99.99,,,0.00,Acu-Link.com,2013-03-21 02:07:00,
2013-03-20 22:22:00,42.1,16.4,29.46,SSW,202,4.7,-999.0,35,-99.99,,,0.00,Acu-Link.com,2013-03-21 02:22:00,
2013-03-20 22:38:00,41.7,16.7,29.46,NNW,337,2.2,-999.0,36,-99.99,,,0.00,Acu-Link.com,2013-03-21 02:38:00,
2013-03-20 22:53:00,41.0,16.7,29.46,WSW,247,1.7,-999.0,37,-99.99,,,0.00,Acu-Link.com,2013-03-21 02:53:00,
2013-03-20 23:08:00,39.9,18.7,29.47,West,270,1.7,-999.0,42,-99.99,,,0.00,Acu-Link.com,2013-03-21 03:08:00,
2013-03-20 23:23:00,38.1,21.6,29.47,ESE,112,5.3,-999.0,51,-99.99,,,0.00,Acu-Link.com,2013-03-21 03:23:00,
2013-03-20 23:38:00,36.0,25.8,29.49,West,270,5.8,-999.0,66,-99.99,,,0.00,Acu-Link.com,2013-03-21 03:38:00,
2013-03-20 23:54:00,32.7,28.7,29.48,ESE,112,1.7,-999.0,85,-99.99,,,0.00,Acu-Link.com,2013-03-21 03:54:00,